createdAt,value
2018-11-21T00:02:49.007Z,77.82
2018-11-21T00:07:51.745Z,77.83
2018-11-21T00:12:56.160Z,78.49
2018-11-21T00:17:58.914Z,78.46
2018-11-21T00:23:01.570Z,78.11
2018-11-21T00:28:04.418Z,77.99
2018-11-21T00:33:07.042Z,78.26
2018-11-21T00:38:09.679Z,78.26
2018-11-21T00:43:12.321Z,78.23
2018-11-21T00:48:14.964Z,79.60
2018-11-21T00:53:17.620Z,79.95
2018-11-21T00:58:20.242Z,80.41
2018-11-21T01:03:22.884Z,80.91
2018-11-21T01:08:25.543Z,80.79
2018-11-21T01:13:28.154Z,79.57
2018-11-21T01:18:30.846Z,79.21
2018-11-21T01:23:33.502Z,79.74
2018-11-21T01:28:36.136Z,78.42
2018-11-21T01:33:38.759Z,76.70
2018-11-21T01:38:41.471Z,78.42
2018-11-21T01:43:44.100Z,78.48
2018-11-21T01:48:46.727Z,78.78
2018-11-21T01:53:49.342Z,78.51
2018-11-21T01:58:52.014Z,78.96
2018-11-21T02:03:54.619Z,79.32
2018-11-21T02:08:57.282Z,79.97
2018-11-21T02:13:59.930Z,80.73
2018-11-21T02:19:02.757Z,80.15
2018-11-21T02:24:05.394Z,77.62
2018-11-21T02:29:08.031Z,78.54
2018-11-21T02:34:10.645Z,78.96
2018-11-21T02:39:13.355Z,78.61
2018-11-21T02:44:15.989Z,77.96
2018-11-21T02:49:18.594Z,78.61
2018-11-21T02:54:21.252Z,78.69
2018-11-21T02:59:23.890Z,78.26
2018-11-21T03:04:26.935Z,78.18
2018-11-21T03:09:29.612Z,78.34
2018-11-21T03:14:32.238Z,78.51
2018-11-21T03:19:34.866Z,78.38
2018-11-21T03:24:37.690Z,77.86
2018-11-21T03:29:40.287Z,77.74
2018-11-21T03:34:42.924Z,78.11
2018-11-21T03:39:45.579Z,78.69
2018-11-21T03:44:48.200Z,79.92
2018-11-21T03:49:50.850Z,81.01
2018-11-21T03:54:53.501Z,79.71
2018-11-21T03:59:56.138Z,78.54
2018-11-21T04:04:58.747Z,78.80
2018-11-21T04:10:01.570Z,78.29
2018-11-21T04:15:06.680Z,79.06
2018-11-21T04:20:09.512Z,79.37
2018-11-21T04:25:12.101Z,79.43
2018-11-21T04:30:14.721Z,79.72
2018-11-21T04:35:17.446Z,81.28
2018-11-21T04:40:20.066Z,82.03
2018-11-21T04:45:22.695Z,82.15
2018-11-21T04:50:25.322Z,82.29
2018-11-21T04:55:27.961Z,82.16
2018-11-21T05:00:30.563Z,82.05
2018-11-21T05:05:33.176Z,81.81
2018-11-21T05:10:35.796Z,81.88
2018-11-21T05:15:38.444Z,82.48
2018-11-21T05:20:41.118Z,82.44
2018-11-21T05:25:43.824Z,82.04
2018-11-21T05:30:46.524Z,81.54
2018-11-21T05:35:49.179Z,81.10
2018-11-21T05:40:51.845Z,79.84
2018-11-21T05:45:56.391Z,78.80
2018-11-21T05:50:59.044Z,79.29
2018-11-21T05:56:01.750Z,78.46
2018-11-21T06:01:04.643Z,78.01
2018-11-21T06:06:10.101Z,77.70
2018-11-21T06:11:09.907Z,77.44
2018-11-21T06:16:12.541Z,77.86
2018-11-21T06:21:15.212Z,78.32
2018-11-21T06:26:17.815Z,77.36
2018-11-21T06:31:20.710Z,77.45
2018-11-21T06:36:23.369Z,78.18
2018-11-21T06:41:25.996Z,77.32
2018-11-21T06:46:28.751Z,77.16
2018-11-21T06:51:35.220Z,77.44
2018-11-21T06:56:34.086Z,76.78
2018-11-21T07:01:37.108Z,78.23
2018-11-21T07:06:39.721Z,78.86
2018-11-21T07:11:43.367Z,79.09
2018-11-21T07:16:46.093Z,79.00
2018-11-21T07:21:50.110Z,79.13
2018-11-21T07:26:52.788Z,79.29
2018-11-21T07:31:55.496Z,79.64
2018-11-21T07:36:58.172Z,79.73
2018-11-21T07:42:00.808Z,79.86
2018-11-21T07:47:03.440Z,79.60
2018-11-21T07:52:06.131Z,79.50
2018-11-21T07:57:33.398Z,77.40
2018-11-21T08:02:38.117Z,76.26
2018-11-21T08:07:48.998Z,77.56
2018-11-21T08:13:26.177Z,77.09
2018-11-21T08:18:39.649Z,77.94
2018-11-21T08:24:01.832Z,78.44
2018-11-21T08:29:04.530Z,78.19
2018-11-21T08:34:07.180Z,77.83
2018-11-21T08:39:10.174Z,78.05
2018-11-21T08:44:12.892Z,77.65
2018-11-21T08:49:15.559Z,76.37
2018-11-21T08:54:37.713Z,75.86
2018-11-21T08:59:59.865Z,76.00
2018-11-21T09:05:22.050Z,75.99
2018-11-21T09:10:44.229Z,75.26
2018-11-21T09:16:06.389Z,74.70
2018-11-21T09:21:28.579Z,75.07
2018-11-21T09:26:50.749Z,75.11
2018-11-21T09:32:12.903Z,74.08
2018-11-21T09:37:35.083Z,74.12
2018-11-21T09:42:57.262Z,74.15
2018-11-21T09:48:19.410Z,74.97
2018-11-21T09:53:41.580Z,74.34
2018-11-21T09:59:03.819Z,73.82
2018-11-21T10:04:25.976Z,73.44
2018-11-21T10:09:49.530Z,72.24
2018-11-21T10:15:11.695Z,73.57
2018-11-21T10:20:33.867Z,73.96
2018-11-21T10:25:56.033Z,71.71
2018-11-21T10:31:18.204Z,72.47
2018-11-21T10:36:40.367Z,72.96
2018-11-21T10:42:02.545Z,72.25
2018-11-21T10:47:24.715Z,71.53
2018-11-21T10:52:46.898Z,71.65
2018-11-21T10:58:09.053Z,72.27
2018-11-21T11:03:36.466Z,71.67
2018-11-21T11:09:18.200Z,72.66
2018-11-21T11:14:59.910Z,72.39
2018-11-21T11:20:41.612Z,71.84
2018-11-21T11:26:23.361Z,71.69
2018-11-21T11:32:05.245Z,72.23
2018-11-21T11:37:46.950Z,72.92
2018-11-21T11:43:28.690Z,72.68
2018-11-21T11:49:10.398Z,72.13
2018-11-21T11:54:52.119Z,71.74
2018-11-21T12:00:33.812Z,71.86
2018-11-21T12:06:15.580Z,71.77
2018-11-21T12:11:57.306Z,72.35
2018-11-21T12:17:39.003Z,71.91
2018-11-21T12:23:12.811Z,72.31
2018-11-21T12:28:54.520Z,72.99
2018-11-21T12:34:36.235Z,72.52
2018-11-21T12:40:17.951Z,73.27
2018-11-21T12:45:59.669Z,72.89
2018-11-21T12:51:41.376Z,72.80
2018-11-21T12:57:23.101Z,72.83
2018-11-21T13:03:04.825Z,73.04
2018-11-21T13:08:46.522Z,72.78
2018-11-21T13:14:28.227Z,73.23
2018-11-21T13:20:09.926Z,72.36
2018-11-21T13:25:51.678Z,72.40
2018-11-21T13:31:33.389Z,72.56
2018-11-21T13:37:15.116Z,73.20
2018-11-21T13:42:56.836Z,73.35
2018-11-21T13:48:38.538Z,73.17
2018-11-21T13:54:20.248Z,72.91
2018-11-21T13:59:42.482Z,72.29
2018-11-21T14:05:06.898Z,73.22
2018-11-21T14:10:29.114Z,72.25
2018-11-21T14:15:51.278Z,72.50
2018-11-21T14:21:13.475Z,73.44
2018-11-21T14:26:35.657Z,73.42
2018-11-21T14:31:57.845Z,73.44
2018-11-21T14:37:20.093Z,73.32
2018-11-21T14:42:42.525Z,73.69
2018-11-21T14:48:05.109Z,73.70
2018-11-21T14:53:27.320Z,74.49
2018-11-21T14:58:49.514Z,74.35
2018-11-21T15:04:11.707Z,73.76
2018-11-21T15:09:33.939Z,74.60
2018-11-21T15:14:56.145Z,73.94
2018-11-21T15:20:20.302Z,74.79
2018-11-21T15:25:42.481Z,74.65
2018-11-21T15:31:04.921Z,74.80
2018-11-21T15:36:27.138Z,75.11
2018-11-21T15:41:49.290Z,74.31
2018-11-21T15:47:11.496Z,74.39
2018-11-21T15:52:34.549Z,74.16
2018-11-21T15:57:56.826Z,74.40
2018-11-21T16:03:19.032Z,74.01
2018-11-21T16:08:41.253Z,74.13
2018-11-21T16:14:03.791Z,73.74
2018-11-21T16:19:25.979Z,73.98
2018-11-21T16:24:48.187Z,73.50
2018-11-21T16:30:12.577Z,73.49
2018-11-21T16:35:34.808Z,74.04
2018-11-21T16:40:57.019Z,74.51
2018-11-21T16:46:19.240Z,74.44
2018-11-21T16:51:41.504Z,74.08
2018-11-21T16:57:03.706Z,72.85
2018-11-21T17:02:25.902Z,73.02
2018-11-21T17:07:48.282Z,74.01
2018-11-21T17:13:10.483Z,73.24
2018-11-21T17:18:32.699Z,73.33
2018-11-21T17:23:54.923Z,71.67
2018-11-21T17:29:17.105Z,73.05
2018-11-21T17:34:39.367Z,73.07
2018-11-21T17:40:01.604Z,72.54
2018-11-21T17:45:05.824Z,72.79
2018-11-21T17:50:13.883Z,72.33
2018-11-21T17:55:18.717Z,72.40
2018-11-21T18:00:23.032Z,73.02
2018-11-21T18:05:31.380Z,71.85
2018-11-21T18:10:35.706Z,72.05
2018-11-21T18:15:38.439Z,71.97
2018-11-21T18:20:41.274Z,71.32
2018-11-21T18:25:45.354Z,71.43
2018-11-21T18:30:48.140Z,71.50
2018-11-21T18:35:50.849Z,72.65
2018-11-21T18:40:53.727Z,72.63
2018-11-21T18:45:56.512Z,72.58
2018-11-21T18:50:59.319Z,73.16
2018-11-21T18:56:45.529Z,73.40
2018-11-21T19:01:47.532Z,72.83
2018-11-21T19:06:50.441Z,71.91
2018-11-21T19:11:53.222Z,73.28
2018-11-21T19:16:56.068Z,72.59
2018-11-21T19:21:58.831Z,73.33
2018-11-21T19:27:01.783Z,72.85
2018-11-21T19:32:04.876Z,73.15
2018-11-21T19:37:07.614Z,73.34
2018-11-21T19:42:10.543Z,73.71
2018-11-21T19:47:13.414Z,73.74
2018-11-21T19:52:16.160Z,72.75
2018-11-21T19:57:18.885Z,73.55
2018-11-21T20:02:21.820Z,73.10
2018-11-21T20:07:24.640Z,73.32
2018-11-21T20:12:27.362Z,73.38
2018-11-21T20:17:30.208Z,73.90
2018-11-21T20:22:33.048Z,73.81
2018-11-21T20:27:35.785Z,74.09
2018-11-21T20:32:38.812Z,73.80
2018-11-21T20:37:42.194Z,73.10
2018-11-21T20:42:45.510Z,73.93
2018-11-21T20:47:49.455Z,74.04
2018-11-21T20:52:52.625Z,73.64
2018-11-21T20:57:55.449Z,73.23
2018-11-21T21:02:58.189Z,73.35
2018-11-21T21:08:00.964Z,73.52
2018-11-21T21:13:03.709Z,73.32
2018-11-21T21:18:06.443Z,73.31
2018-11-21T21:23:09.119Z,73.36
2018-11-21T21:28:11.850Z,73.74
2018-11-21T21:33:14.600Z,74.00
2018-11-21T21:38:17.365Z,74.03
2018-11-21T21:43:20.138Z,73.84
2018-11-21T21:48:22.817Z,73.42
2018-11-21T21:53:25.676Z,73.41
2018-11-21T21:58:28.421Z,73.68
2018-11-21T22:03:31.130Z,74.04
2018-11-21T22:08:33.811Z,74.09
2018-11-21T22:13:36.536Z,73.80
2018-11-21T22:18:39.209Z,73.58
2018-11-21T22:23:41.869Z,73.44
2018-11-21T22:28:44.566Z,73.42
2018-11-21T22:33:47.320Z,73.72
2018-11-21T22:38:49.996Z,73.59
2018-11-21T22:43:52.750Z,73.47
2018-11-21T22:48:55.449Z,73.16
2018-11-21T22:53:58.119Z,73.48
2018-11-21T22:59:00.937Z,73.20
2018-11-21T23:04:04.003Z,72.85
2018-11-21T23:09:08.863Z,73.29
2018-11-21T23:14:11.601Z,73.50
2018-11-21T23:19:14.293Z,73.35
2018-11-21T23:24:16.946Z,73.38
2018-11-21T23:29:19.669Z,73.46
2018-11-21T23:34:22.614Z,73.41
2018-11-21T23:39:25.246Z,72.85
2018-11-21T23:44:47.403Z,73.83
2018-11-21T23:50:11.056Z,74.20
2018-11-21T23:55:33.196Z,74.02
